Forside
METAR-TAF:

METAR-TAF

Lufthavne :

Richmond, Australien

Breddekreds: 33-36S, længdekreds: 150-47E, højde: 21 m

Aktuelle vejr

Denne rapport blev lavet for 45 minutter siden, kl. 15:00 UTC
Vind stille
Temperatur 16°C
Fugtighed 100%
Tryk 1012 hPa
Sigt 10 km eller mere

METAR: YSRI 231500Z AUTO 00000KT 9999 // NCD 16/16 Q1012

Tid: 02:45 (15:45 UTC)

Vejrudsigter

Denne rapport blev lavet for 4 timer og 11 minutter siden, kl. 11:34 UTC
Foreløbig gælder fra 23 på 12 UTC til 24 på 12 UTC
Vind 3 kt fra varierende retninger
Sigt 10 km eller mere
ingen skyer under 1500m og ingen cumulonimbus
Fra 23 på 1400 UTC
Vind 12 kt fra syd
Sigt 10 km eller mere
Nogle få skyer i en højde af 1000 ft
Brudte skyer i en højde af 2000 ft
Fra 23 på 2300 UTC
Vind 12 kt fra sydsydøst
Sigt 10 km eller mere
Brudte skyer i en højde af 3000 ft

TAF: YSRI 231134Z 2312/2412 VRB03KT CAVOK FM231400 18012KT 9999 FEW010 BKN020 FM232300 16012KT 9999 BKN030

Vejrobservationer og prognoser fra mere end 4000 lufthavne (METAR og TAF).

De gule og røde prikker repræsenterer de meteorologiske stationer.

Flyt musen over at se navnet på stationen.

Så klik over at se vejr observationer og prognoser.

At skifte det kort: Klik på de grønne knapper med et sort kors for at zoome ind; på den grønne knap med en bindestreg for at zoome ud; eller på de grønne pile for tilstødende kort.


METAR-TAF: